This is the latest recevied weather packets stored in our database for station/object SV2RIM-2. If no packets are shown the sender has not sent any weather packets the latest 10 day(s).
| Time | Temp. | Humidity | Pressure | Rain* | Wind** | Luminosity | Snow |
|---|---|---|---|---|---|---|---|
| 1777445119 | 19.44° C | 54% | 1017.4 hPa | - | - | - | - |
| 1777444519 | 20° C | 52% | 1017.5 hPa | - | - | - | - |
| 1777443919 | 19.44° C | 52% | 1017.4 hPa | - | - | - | - |
| 1777443319 | 20° C | 49% | 1017.3 hPa | - | - | - | - |
| 1777442719 | 19.44° C | 51% | 1017.3 hPa | - | - | - | - |
| 1777442119 | 17.78° C | 56% | 1017.3 hPa | - | - | - | - |
| 1777441519 | 16.67° C | 58% | 1017.2 hPa | - | - | - | - |
| 1777440919 | 17.22° C | 55% | 1017.1 hPa | - | - | - | - |
| 1777440319 | 16.67° C | 56% | 1017.1 hPa | - | - | - | - |
| 1777439719 | 12.22° C | 71% | 1017.1 hPa | - | - | - | - |
| 1777439119 | 11.67° C | 73% | 1017.1 hPa | - | - | - | - |
| 1777438519 | 11.11° C | 74% | 1017 hPa | - | - | - | - |
| 1777437919 | 10.56° C | 74% | 1016.9 hPa | - | - | - | - |
| 1777437319 | 10° C | 75% | 1016.8 hPa | - | - | - | - |
| 1777436719 | 10° C | 75% | 1016.7 hPa | - | - | - | - |
| 1777436119 | 10° C | 75% | 1016.8 hPa | - | - | - | - |
| 1777435519 | 9.44° C | 76% | 1016.8 hPa | - | - | - | - |
| 1777434919 | 9.44° C | 76% | 1016.7 hPa | - | - | - | - |
| 1777434319 | 9.44° C | 75% | 1016.7 hPa | - | - | - | - |
| 1777433719 | 9.44° C | 76% | 1016.6 hPa | - | - | - | - |
| 1777433119 | 9.44° C | 75% | 1016.5 hPa | - | - | - | - |
| 1777432519 | 10° C | 75% | 1016.5 hPa | - | - | - | - |
| 1777431919 | 10° C | 75% | 1016.4 hPa | - | - | - | - |
| 1777431319 | 10° C | 74% | 1016.5 hPa | - | - | - | - |
| 1777430719 | 10° C | 74% | 1016.4 hPa | - | - | - | - |
* Rain since midnight (hover to see other rain measurements)
** Current wind speed in m/s (hover to see current wind gust speed)